Time;durP1;ratioP1;P1;durP2;ratioP2;P2;SDS_P1;SDS_P2;PMS_P1;PMS_P2;Temp;Humidity;BMP_temperature;BMP_pressure;BME280_temperature;BME280_humidity;BME280_pressure;Samples;Min_cycle;Max_cycle;Signal;HPM_P1;HPM_P2
2022/09/24 00:01:20;;;;;;;63.92;35.97;;;6.20;99.90;;;;;;5094700;28;20055;-56
2022/09/24 00:03:51;;;;;;;58.63;30.98;;;6.20;99.90;;;;;;5094851;28;20103;-56
2022/09/24 00:06:20;;;;;;;;;;;6.40;99.90;;;;;;5095291;28;20035;-56
2022/09/24 00:08:47;;;;;;;72.13;38.30;;;6.30;99.90;;;;;;5094723;28;20419;-56
2022/09/24 00:11:15;;;;;;;76.13;38.25;;;6.20;99.90;;;;;;5094932;28;20431;-56
2022/09/24 00:13:41;;;;;;;74.10;38.78;;;6.30;99.90;;;;;;5094590;28;20051;-55
2022/09/24 00:16:10;;;;;;;78.13;38.97;;;6.30;99.90;;;;;;5094592;28;20028;-55
2022/09/24 00:18:36;;;;;;;77.25;38.40;;;6.20;99.90;;;;;;5094637;28;20032;-56
2022/09/24 00:21:27;;;;;;;68.80;34.67;;;6.00;99.90;;;;;;5075722;28;20031;-56
2022/09/24 00:23:59;;;;;;;63.35;34.67;;;5.90;99.90;;;;;;5077574;28;20036;-56
2022/09/24 00:29:15;;;;;;;60.00;31.63;;;5.90;99.90;;;;;;5094486;28;20032;-56
2022/09/24 00:31:41;;;;;;;63.80;32.72;;;5.90;99.90;;;;;;5094479;28;20040;-56
2022/09/24 00:34:07;;;;;;;63.17;34.05;;;5.80;99.90;;;;;;5094505;28;20396;-55
2022/09/24 00:36:33;;;;;;;59.83;32.13;;;5.80;99.90;;;;;;5094614;28;20021;-56
2022/09/24 00:39:01;;;;;;;67.38;33.47;;;5.80;99.90;;;;;;5094530;28;20024;-56
2022/09/24 00:41:32;;;;;;;61.38;32.67;;;5.80;99.90;;;;;;5094064;28;20401;-56
2022/09/24 00:43:59;;;;;;;57.53;31.45;;;5.90;99.90;;;;;;5094390;28;20115;-56
2022/09/24 00:46:37;;;;;;;56.88;30.25;;;5.90;99.90;;;;;;5093021;28;20496;-56
2022/09/24 00:49:19;;;;;;;58.90;32.33;;;5.90;99.90;;;;;;5094335;28;20024;-56
2022/09/24 00:51:50;;;;;;;58.38;30.15;;;5.80;99.90;;;;;;5094390;28;20473;-56
2022/09/24 00:54:20;;;;;;;58.58;31.20;;;5.80;99.90;;;;;;5094410;28;20036;-56
2022/09/24 00:56:48;;;;;;;55.53;29.80;;;5.70;99.90;;;;;;5094448;28;20092;-55
2022/09/24 00:59:17;;;;;;;55.20;28.63;;;5.70;99.90;;;;;;5094461;28;20024;-56
2022/09/24 01:01:45;;;;;;;57.05;30.40;;;5.70;99.90;;;;;;5094448;28;20039;-55
2022/09/24 01:04:12;;;;;;;57.03;30.50;;;5.70;99.90;;;;;;5094237;28;20048;-56
2022/09/24 01:06:38;;;;;;;56.10;30.05;;;5.70;99.90;;;;;;5094038;28;20073;-56
2022/09/24 01:09:04;;;;;;;60.20;30.13;;;5.60;99.90;;;;;;5075999;28;20043;-56
2022/09/24 01:11:46;;;;;;;56.17;30.50;;;5.60;99.90;;;;;;5094222;28;20086;-56
2022/09/24 01:14:39;;;;;;;54.28;29.45;;;5.60;99.90;;;;;;5094221;28;20060;-56
2022/09/24 01:17:38;;;;;;;53.63;28.58;;;5.60;99.90;;;;;;5094065;28;20044;-56
2022/09/24 01:20:28;;;;;;;47.45;28.23;;;5.60;99.90;;;;;;5093890;28;20035;-56
2022/09/24 01:22:57;;;;;;;53.60;29.00;;;5.50;99.90;;;;;;5093984;28;20032;-55
2022/09/24 01:25:23;;;;;;;47.08;26.83;;;5.50;99.90;;;;;;5092813;28;20020;-56
2022/09/24 01:28:10;;;;;;;46.20;25.90;;;5.50;99.90;;;;;;5093890;28;20031;-56
2022/09/24 01:30:40;;;;;;;46.25;25.13;;;5.40;99.90;;;;;;5093936;28;20036;-56
2022/09/24 01:33:15;;;;;;;42.15;23.83;;;5.40;99.90;;;;;;5096298;28;20032;-56
2022/09/24 01:35:44;;;;;;;43.13;23.65;;;5.40;99.90;;;;;;5096671;28;20031;-56
2022/09/24 01:38:20;;;;;;;43.25;24.73;;;5.30;99.90;;;;;;5097549;28;20056;-56
2022/09/24 01:40:47;;;;;;;47.92;24.95;;;5.30;99.90;;;;;;5097340;28;20052;-56
2022/09/24 01:43:16;;;;;;;42.15;23.95;;;5.20;99.90;;;;;;5097576;28;20032;-56
2022/09/24 01:45:42;;;;;;;42.15;23.35;;;5.20;99.90;;;;;;5097434;28;20020;-56
2022/09/24 01:48:08;;;;;;;42.85;24.38;;;5.20;99.90;;;;;;5097600;28;20032;-56
2022/09/24 01:50:43;;;;;;;38.78;22.50;;;5.30;99.90;;;;;;5097570;28;20111;-56
2022/09/24 01:53:18;;;;;;;46.90;26.33;;;5.30;99.90;;;;;;5095882;28;20031;-56
2022/09/24 01:55:51;;;;;;;46.65;24.40;;;5.30;99.90;;;;;;5097320;28;20103;-56
2022/09/24 01:58:22;;;;;;;36.50;21.50;;;5.30;99.90;;;;;;5097184;28;20020;-56
2022/09/24 02:00:56;;;;;;;39.38;22.83;;;5.20;99.90;;;;;;5097095;28;20110;-56
2022/09/24 02:03:30;;;;;;;37.05;21.70;;;5.20;99.90;;;;;;5096994;28;20017;-55
2022/09/24 02:06:15;;;;;;;36.20;20.73;;;5.20;99.90;;;;;;5097088;28;20528;-55
2022/09/24 02:08:46;;;;;;;37.42;20.95;;;5.30;99.90;;;;;;5096953;28;20103;-56
2022/09/24 02:11:15;;;;;;;73.50;29.02;;;5.20;99.90;;;;;;5079341;28;20048;-56
2022/09/24 02:13:48;;;;;;;88.05;34.47;;;5.30;99.90;;;;;;5097028;28;20112;-56
2022/09/24 02:16:20;;;;;;;70.80;30.73;;;5.30;99.90;;;;;;5061109;28;20040;-56
2022/09/24 02:18:50;;;;;;;54.38;26.17;;;5.30;99.90;;;;;;5096880;28;20397;-56
2022/09/24 02:21:18;;;;;;;52.05;25.48;;;5.30;99.90;;;;;;5096454;28;20477;-56
2022/09/24 02:23:50;;;;;;;46.03;24.60;;;5.30;99.90;;;;;;5096787;28;20358;-56
2022/09/24 02:26:16;;;;;;;43.10;22.70;;;5.20;99.90;;;;;;5096824;28;20034;-56
2022/09/24 02:28:42;;;;;;;41.05;21.08;;;5.10;99.90;;;;;;5096506;28;20077;-56
2022/09/24 02:31:37;;;;;;;38.05;21.88;;;5.20;99.90;;;;;;5096523;28;20469;-56
2022/09/24 02:34:19;;;;;;;37.70;20.65;;;5.10;99.90;;;;;;5095791;28;20474;-56
2022/09/24 02:36:51;;;;;;;38.28;20.63;;;5.10;99.90;;;;;;5095277;28;20397;-56
2022/09/24 02:39:17;;;;;;;40.17;20.60;;;5.10;99.90;;;;;;5078715;28;20032;-56
2022/09/24 02:41:48;;;;;;;49.97;24.90;;;5.20;99.90;;;;;;5075244;28;20044;-56
2022/09/24 02:44:15;;;;;;;56.67;28.20;;;5.30;99.90;;;;;;5075344;28;20031;-56
2022/09/24 02:46:42;;;;;;;40.00;22.80;;;5.30;99.90;;;;;;5074849;28;20028;-56
2022/09/24 02:49:09;;;;;;;46.22;25.58;;;5.40;99.90;;;;;;5075964;28;20429;-56
2022/09/24 02:51:36;;;;;;;50.95;25.80;;;5.30;99.90;;;;;;5076073;28;20092;-56
2022/09/24 02:54:03;;;;;;;50.55;24.17;;;5.20;99.90;;;;;;5076003;28;20035;-56
2022/09/24 02:56:29;;;;;;;50.60;25.95;;;5.20;99.90;;;;;;5075355;28;20394;-56
2022/09/24 02:58:55;;;;;;;50.50;25.80;;;5.10;99.90;;;;;;5075852;28;20553;-56
2022/09/24 03:01:22;;;;;;;60.63;27.63;;;5.00;99.90;;;;;;5075618;28;20214;-56
2022/09/24 03:03:48;;;;;;;41.70;23.00;;;4.90;99.90;;;;;;5074304;28;20017;-56
2022/09/24 03:06:14;;;;;;;40.70;22.85;;;4.90;99.90;;;;;;5075755;28;20382;-56
2022/09/24 03:08:41;;;;;;;44.22;22.80;;;4.90;99.90;;;;;;5075567;28;20043;-56
2022/09/24 03:11:09;;;;;;;38.88;20.25;;;4.90;99.90;;;;;;5075501;28;20102;-56
2022/09/24 03:13:35;;;;;;;35.88;18.63;;;4.90;99.90;;;;;;5075532;28;20765;-56
2022/09/24 03:16:01;;;;;;;34.13;19.30;;;4.80;99.90;;;;;;5074198;28;20035;-56
2022/09/24 03:18:27;;;;;;;38.33;19.25;;;4.80;99.90;;;;;;5075335;28;20104;-56
2022/09/24 03:21:03;;;;;;;34.15;19.20;;;4.80;99.90;;;;;;5090725;28;20056;-56
2022/09/24 03:23:29;;;;;;;34.80;19.58;;;4.80;99.90;;;;;;5075425;28;20054;-56
2022/09/24 03:25:56;;;;;;;34.25;19.88;;;4.80;99.90;;;;;;5075252;28;20040;-56
2022/09/24 03:28:21;;;;;;;42.22;21.70;;;4.80;99.90;;;;;;5072934;28;20581;-56
2022/09/24 03:31:00;;;;;;;42.55;20.92;;;4.80;99.90;;;;;;5075300;28;20052;-56
2022/09/24 03:33:26;;;;;;;43.75;23.38;;;4.80;99.90;;;;;;5075208;28;20301;-56
2022/09/24 03:36:01;;;;;;;44.95;26.20;;;4.80;99.90;;;;;;5075063;28;20104;-56
2022/09/24 03:38:29;;;;;;;40.42;23.83;;;4.90;99.90;;;;;;5074986;28;20086;-56
2022/09/24 03:40:56;;;;;;;70.45;34.83;;;4.90;99.90;;;;;;5087782;28;20146;-56
2022/09/24 03:43:22;;;;;;;55.72;27.40;;;4.80;99.90;;;;;;5094996;28;20462;-56
2022/09/24 03:45:48;;;;;;;46.38;25.42;;;4.90;99.90;;;;;;5095164;28;20081;-56
2022/09/24 03:48:16;;;;;;;46.10;25.27;;;4.90;99.90;;;;;;5095308;28;20028;-56
2022/09/24 03:50:43;;;;;;;52.38;25.90;;;4.90;99.90;;;;;;5095178;28;20054;-56
2022/09/24 03:53:09;;;;;;;45.47;25.17;;;4.90;99.90;;;;;;5094975;28;20028;-56
2022/09/24 03:55:40;;;;;;;48.22;25.15;;;4.90;99.90;;;;;;5094044;28;20039;-56
2022/09/24 03:58:06;;;;;;;49.22;26.58;;;4.90;99.90;;;;;;5094977;28;20036;-56
2022/09/24 04:00:32;;;;;;;47.88;24.73;;;4.80;99.90;;;;;;5094834;28;20028;-56
2022/09/24 04:02:58;;;;;;;41.65;20.15;;;4.80;99.90;;;;;;5110425;28;20032;-56
2022/09/24 04:05:23;;;;;;;37.08;20.80;;;4.70;99.90;;;;;;5095005;28;20024;-56
2022/09/24 04:07:49;;;;;;;39.10;20.38;;;4.70;99.90;;;;;;5094680;28;20024;-56
2022/09/24 04:10:16;;;;;;;44.08;22.40;;;4.60;99.90;;;;;;5093532;28;20428;-56
2022/09/24 04:12:42;;;;;;;39.45;22.00;;;4.60;99.90;;;;;;5076648;28;20032;-56
2022/09/24 04:15:09;;;;;;;42.00;24.92;;;4.60;99.90;;;;;;5094598;28;20024;-56
2022/09/24 04:17:34;;;;;;;38.92;23.88;;;4.60;99.90;;;;;;5094728;28;20081;-55
2022/09/24 04:20:01;;;;;;;43.80;23.63;;;4.60;99.90;;;;;;5093185;28;20032;-56
2022/09/24 04:22:28;;;;;;;41.80;22.55;;;4.60;99.90;;;;;;5094645;28;20036;-56
2022/09/24 04:24:56;;;;;;;49.97;24.98;;;4.50;99.90;;;;;;5094534;28;20024;-56
2022/09/24 04:27:23;;;;;;;86.40;36.55;;;4.50;99.90;;;;;;5093226;28;20028;-56
2022/09/24 04:29:48;;;;;;;77.72;34.58;;;4.50;99.90;;;;;;5094356;28;20024;-56
2022/09/24 04:32:15;;;;;;;102.50;37.70;;;4.50;99.90;;;;;;5094475;28;20032;-55
2022/09/24 04:34:40;;;;;;;78.03;30.25;;;4.50;99.90;;;;;;5094432;28;20040;-56
2022/09/24 04:37:08;;;;;;;72.57;33.60;;;4.60;99.90;;;;;;5094429;28;20073;-56
2022/09/24 04:39:34;;;;;;;57.22;25.58;;;4.50;99.90;;;;;;5094204;28;20423;-56
2022/09/24 04:42:00;;;;;;;47.15;22.73;;;4.50;99.90;;;;;;5094554;28;20039;-56
2022/09/24 04:44:29;;;;;;;45.60;23.70;;;4.50;99.90;;;;;;5094097;28;20105;-56
2022/09/24 04:47:02;;;;;;;44.75;19.05;;;4.50;99.90;;;;;;5094356;28;20050;-56
2022/09/24 04:49:28;;;;;;;35.38;18.17;;;4.60;99.90;;;;;;5110204;28;20107;-56
2022/09/24 04:51:57;;;;;;;33.20;17.00;;;4.50;99.90;;;;;;5094349;28;20024;-56
2022/09/24 04:54:24;;;;;;;33.47;17.92;;;4.50;99.90;;;;;;5094226;28;20042;-56
2022/09/24 04:56:50;;;;;;;32.33;17.05;;;4.50;99.90;;;;;;5094606;28;20024;-56
2022/09/24 04:59:16;;;;;;;32.90;17.27;;;4.50;99.90;;;;;;5094388;28;20558;-56
2022/09/24 05:01:42;;;;;;;31.73;16.90;;;4.50;99.90;;;;;;5109937;28;20322;-56
2022/09/24 05:04:08;;;;;;;41.90;19.70;;;4.60;99.90;;;;;;5094238;28;20081;-56
2022/09/24 05:06:35;;;;;;;40.47;20.42;;;4.60;99.90;;;;;;5077578;28;20097;-56
2022/09/24 05:09:00;;;;;;;46.15;22.10;;;4.60;99.90;;;;;;5098187;28;20073;-56
2022/09/24 05:11:27;;;;;;;39.75;21.85;;;4.70;99.90;;;;;;5098181;28;20024;-56
2022/09/24 05:13:53;;;;;;;43.67;22.08;;;5.00;99.90;;;;;;5080043;28;20107;-56
2022/09/24 05:16:19;;;;;;;43.33;22.73;;;5.10;99.90;;;;;;5097971;28;20047;-56
2022/09/24 05:18:45;;;;;;;49.75;23.65;;;5.40;99.90;;;;;;5097979;28;20028;-56
2022/09/24 05:21:11;;;;;;;52.97;22.00;;;5.60;99.90;;;;;;5097779;28;20435;-56
2022/09/24 05:23:37;;;;;;;35.58;18.92;;;6.00;99.90;;;;;;5098056;28;20059;-56
2022/09/24 05:28:47;;;;;;;38.85;18.08;;;6.10;99.90;;;;;;5097909;28;20029;-56
2022/09/24 05:31:13;;;;;;;38.58;18.05;;;6.40;99.90;;;;;;5097948;28;20075;-56
2022/09/24 05:33:39;;;;;;;36.78;19.15;;;6.60;99.90;;;;;;5097947;28;20032;-56
2022/09/24 05:36:05;;;;;;;38.00;20.98;;;6.80;99.90;;;;;;5097704;28;20108;-56
2022/09/24 05:38:31;;;;;;;45.70;19.50;;;7.00;99.90;;;;;;5097829;28;20032;-56
2022/09/24 05:40:57;;;;;;;43.35;20.65;;;7.20;99.90;;;;;;5078308;28;20117;-56
2022/09/24 05:43:26;;;;;;;38.75;19.83;;;7.00;99.90;;;;;;5097412;28;20020;-56
2022/09/24 05:45:53;;;;;;;47.72;22.45;;;7.20;99.90;;;;;;5097565;28;20032;-56
2022/09/24 05:48:20;;;;;;;44.65;22.40;;;7.50;99.90;;;;;;5097209;28;20031;-56
2022/09/24 05:50:46;;;;;;;49.13;22.23;;;7.70;99.90;;;;;;5079526;28;20032;-56
2022/09/24 05:53:12;;;;;;;46.70;23.48;;;7.70;99.90;;;;;;5097444;28;20028;-56
2022/09/24 05:55:38;;;;;;;51.30;24.25;;;7.70;99.90;;;;;;5097163;28;20588;-56
2022/09/24 05:58:06;;;;;;;40.35;20.98;;;7.70;99.90;;;;;;5097206;28;20035;-56
2022/09/24 06:00:32;;;;;;;40.75;21.25;;;7.80;99.90;;;;;;5097210;28;20107;-56
2022/09/24 06:03:04;;;;;;;39.47;21.13;;;8.00;99.90;;;;;;5096758;28;20077;-56
2022/09/24 06:05:30;;;;;;;42.58;22.23;;;8.10;99.90;;;;;;5097149;28;20023;-56
2022/09/24 06:07:56;;;;;;;43.03;21.67;;;8.30;99.90;;;;;;5097055;28;20035;-56
2022/09/24 06:10:24;;;;;;;41.30;23.10;;;8.50;99.90;;;;;;5096998;28;20020;-56
2022/09/24 06:12:52;;;;;;;44.53;21.63;;;8.60;99.90;;;;;;5079275;28;20036;-56
2022/09/24 06:15:19;;;;;;;47.03;23.55;;;9.00;99.90;;;;;;5095272;28;20175;-56
2022/09/24 06:17:46;;;;;;;40.40;21.23;;;9.30;99.90;;;;;;5078035;28;20024;-56
2022/09/24 06:20:12;;;;;;;43.63;23.88;;;9.70;99.90;;;;;;5096703;28;20024;-56
2022/09/24 06:22:39;;;;;;;43.67;22.05;;;9.90;99.90;;;;;;5096626;28;20048;-56
2022/09/24 06:25:06;;;;;;;48.30;22.58;;;10.30;99.90;;;;;;5060784;28;20066;-56
2022/09/24 06:27:32;;;;;;;38.72;20.75;;;10.30;99.90;;;;;;5096669;28;20456;-56
2022/09/24 06:29:58;;;;;;;60.00;24.35;;;10.60;99.90;;;;;;5096477;28;20060;-56
2022/09/24 06:32:24;;;;;;;53.50;25.20;;;11.20;99.90;;;;;;5096358;28;20036;-56
2022/09/24 06:34:50;;;;;;;40.95;20.90;;;11.50;99.90;;;;;;5096558;28;20565;-56
2022/09/24 06:37:16;;;;;;;41.17;21.92;;;11.70;98.70;;;;;;5096408;28;20305;-56
2022/09/24 06:39:42;;;;;;;45.92;23.77;;;12.10;96.40;;;;;;5096321;28;20107;-56
2022/09/24 06:42:08;;;;;;;48.05;24.30;;;12.50;96.60;;;;;;5096603;28;20413;-56
2022/09/24 06:44:34;;;;;;;45.17;25.10;;;12.80;95.60;;;;;;5094836;28;20088;-56
2022/09/24 06:47:00;;;;;;;47.53;22.77;;;12.90;93.60;;;;;;5096374;28;20085;-56
2022/09/24 06:49:28;;;;;;;45.10;24.45;;;13.00;92.90;;;;;;5096267;28;20077;-56
2022/09/24 06:51:54;;;;;;;41.35;21.45;;;13.20;92.90;;;;;;5096201;28;20039;-56
2022/09/24 06:54:21;;;;;;;46.95;24.10;;;13.30;92.20;;;;;;5096079;28;20024;-56
2022/09/24 06:56:47;;;;;;;38.28;21.42;;;13.50;89.90;;;;;;5096123;28;20417;-57
2022/09/24 06:59:13;;;;;;;41.03;22.35;;;14.00;89.70;;;;;;5095963;28;20036;-56
2022/09/24 07:01:39;;;;;;;39.13;21.83;;;14.40;89.40;;;;;;5095926;28;20034;-57
2022/09/24 07:04:05;;;;;;;38.22;22.92;;;14.60;85.20;;;;;;5096091;28;20119;-56
2022/09/24 07:09:18;;;;;;;41.92;23.48;;;15.40;82.90;;;;;;5094652;28;20031;-56
2022/09/24 07:11:45;;;;;;;51.33;27.33;;;15.20;80.30;;;;;;5095791;28;20028;-57
2022/09/24 07:14:12;;;;;;;45.70;24.58;;;15.50;81.50;;;;;;5095820;28;20039;-57
2022/09/24 07:16:38;;;;;;;49.70;25.65;;;15.50;79.60;;;;;;5095748;28;20055;-57
2022/09/24 07:19:04;;;;;;;47.95;25.35;;;15.40;80.00;;;;;;5111411;28;20499;-56
2022/09/24 07:21:30;;;;;;;35.72;22.15;;;15.50;81.50;;;;;;5111230;28;20052;-57
2022/09/24 07:23:55;;;;;;;40.45;21.17;;;15.80;79.10;;;;;;5095479;28;20036;-57
2022/09/24 07:26:21;;;;;;;39.45;22.55;;;15.60;80.30;;;;;;5095485;28;20118;-56
2022/09/24 07:28:47;;;;;;;35.13;20.88;;;15.40;79.40;;;;;;5095286;28;20040;-57
2022/09/24 07:31:13;;;;;;;40.25;21.55;;;15.60;80.60;;;;;;5095418;28;20024;-57
2022/09/24 07:33:39;;;;;;;36.42;19.98;;;16.00;78.50;;;;;;5095246;28;20028;-57
2022/09/24 07:36:06;;;;;;;38.97;20.42;;;16.50;78.20;;;;;;5095707;28;20038;-56
2022/09/24 07:38:33;;;;;;;35.55;19.15;;;17.30;76.50;;;;;;5095358;28;20448;-57
2022/09/24 07:40:58;;;;;;;33.45;18.48;;;17.40;72.50;;;;;;5094988;28;20060;-57
2022/09/24 07:43:25;;;;;;;29.17;18.17;;;17.50;71.80;;;;;;5095100;28;20100;-57
2022/09/24 07:45:52;;;;;;;30.80;17.13;;;17.40;71.90;;;;;;5095252;28;20024;-57
2022/09/24 07:48:18;;;;;;;36.30;18.00;;;17.70;72.20;;;;;;5094946;28;20462;-57
2022/09/24 07:50:44;;;;;;;28.10;16.45;;;18.30;72.40;;;;;;5110951;28;20495;-57
2022/09/24 07:53:11;;;;;;;29.38;15.90;;;18.30;68.90;;;;;;5095013;28;20129;-57
2022/09/24 07:55:39;;;;;;;28.20;15.38;;;18.90;68.60;;;;;;5094946;28;20023;-57
2022/09/24 07:58:13;;;;;;;29.13;15.40;;;19.40;64.80;;;;;;5095114;28;20309;-57
2022/09/24 08:00:39;;;;;;;37.90;17.90;;;19.50;65.20;;;;;;5094778;28;20032;-57
2022/09/24 08:03:06;;;;;;;32.17;18.42;;;19.60;66.70;;;;;;5094693;28;20075;-57
2022/09/24 08:05:32;;;;;;;44.20;20.27;;;19.80;64.20;;;;;;5076714;28;20032;-57
2022/09/24 08:07:58;;;;;;;35.42;17.83;;;19.70;63.00;;;;;;5094710;28;20121;-57
2022/09/24 08:10:26;;;;;;;34.10;17.35;;;20.00;61.80;;;;;;5076856;28;20355;-57
2022/09/24 08:12:53;;;;;;;31.02;18.80;;;19.60;63.00;;;;;;5094829;28;20036;-57
2022/09/24 08:15:21;;;;;;;31.10;17.75;;;20.50;61.70;;;;;;5094788;28;20035;-57
2022/09/24 08:17:47;;;;;;;37.22;19.00;;;20.30;60.00;;;;;;5094663;28;20477;-57
2022/09/24 08:20:13;;;;;;;31.75;17.98;;;20.40;60.40;;;;;;5094524;28;20020;-57
2022/09/24 08:22:39;;;;;;;30.75;17.80;;;20.60;60.90;;;;;;5094435;28;20385;-57
2022/09/24 08:25:05;;;;;;;28.75;16.40;;;21.50;58.40;;;;;;5094687;28;20427;-57
2022/09/24 08:27:31;;;;;;;28.45;15.88;;;21.50;55.40;;;;;;5094603;28;20024;-57
2022/09/24 08:29:59;;;;;;;27.65;16.27;;;21.10;54.00;;;;;;5094618;28;20020;-57
2022/09/24 08:32:28;;;;;;;32.65;16.08;;;22.00;54.60;;;;;;5094348;28;20040;-57
2022/09/24 08:34:54;;;;;;;26.42;16.08;;;22.50;54.20;;;;;;5094521;28;20466;-57
2022/09/24 08:37:20;;;;;;;35.47;15.18;;;22.20;51.00;;;;;;5094452;28;20038;-57
2022/09/24 08:39:46;;;;;;;20.98;13.75;;;22.30;51.00;;;;;;5094591;28;20040;-57
2022/09/24 08:42:24;;;;;;;34.15;15.00;;;22.60;51.30;;;;;;5096967;28;20028;-57
2022/09/24 08:47:47;;;;;;;23.80;14.23;;;23.20;47.80;;;;;;5098622;28;20521;-57
2022/09/24 08:50:18;;;;;;;18.90;11.85;;;23.20;46.20;;;;;;5097476;28;20047;-58
2022/09/24 08:53:11;;;;;;;20.05;12.68;;;23.40;47.40;;;;;;5097242;28;20051;-57
2022/09/24 08:55:50;;;;;;;21.83;13.57;;;23.30;46.80;;;;;;5098452;28;20476;-58
2022/09/24 08:58:46;;;;;;;23.52;13.50;;;23.10;46.90;;;;;;5098258;28;20469;-57
2022/09/24 09:01:11;;;;;;;24.42;14.00;;;22.90;45.90;;;;;;5098402;28;20028;-57
2022/09/24 09:03:48;;;;;;;21.70;13.50;;;22.40;48.30;;;;;;5098252;28;20112;-57
2022/09/24 09:06:41;;;;;;;24.48;14.60;;;22.90;48.10;;;;;;5080147;28;20028;-57
2022/09/24 09:09:10;;;;;;;23.75;14.80;;;22.60;47.80;;;;;;5098233;28;20073;-57
2022/09/24 09:11:38;;;;;;;28.70;13.10;;;23.10;50.50;;;;;;5098229;28;20043;-58
2022/09/24 09:14:32;;;;;;;23.67;13.90;;;23.00;47.40;;;;;;5098122;28;20028;-57
2022/09/24 09:17:05;;;;;;;34.80;17.77;;;23.00;49.70;;;;;;5098077;28;20036;-57
2022/09/24 09:19:38;;;;;;;30.60;17.77;;;23.30;49.80;;;;;;5098045;28;20091;-58
2022/09/24 09:22:12;;;;;;;30.00;18.15;;;23.10;48.90;;;;;;5097611;28;20496;-58
2022/09/24 09:24:48;;;;;;;28.80;19.08;;;22.90;49.50;;;;;;5096598;28;20160;-57
2022/09/24 09:27:15;;;;;;;33.60;19.85;;;23.40;49.50;;;;;;5097871;28;20128;-57
2022/09/24 09:29:47;;;;;;;29.73;18.90;;;23.40;48.10;;;;;;5097861;28;20028;-57
2022/09/24 09:32:32;;;;;;;24.50;16.45;;;24.00;51.30;;;;;;5097864;28;20085;-58
2022/09/24 09:35:18;;;;;;;24.23;14.40;;;23.80;48.10;;;;;;5097627;28;20103;-57
2022/09/24 09:38:08;;;;;;;32.00;18.50;;;24.10;46.70;;;;;;5097759;28;20116;-57
2022/09/24 09:41:19;;;;;;;22.65;15.13;;;24.10;45.30;;;;;;5097481;28;20139;-57
2022/09/24 09:43:45;;;;;;;38.83;16.15;;;24.60;44.30;;;;;;5097435;28;20024;-57
2022/09/24 09:46:24;;;;;;;25.55;15.48;;;24.70;45.70;;;;;;5079585;28;20027;-57
2022/09/24 09:48:55;;;;;;;22.10;14.35;;;25.40;43.80;;;;;;5097247;28;20032;-57
2022/09/24 09:51:25;;;;;;;19.55;13.20;;;24.60;42.70;;;;;;5097723;28;20031;-58
2022/09/24 09:53:58;;;;;;;21.43;12.93;;;24.20;46.00;;;;;;5097345;28;20123;-57
2022/09/24 09:56:33;;;;;;;20.10;12.57;;;24.70;43.40;;;;;;5097018;28;20276;-58
2022/09/24 09:59:10;;;;;;;18.67;12.35;;;25.30;45.20;;;;;;5097404;28;20031;-57
2022/09/24 10:01:42;;;;;;;17.33;11.50;;;25.50;42.50;;;;;;5097124;28;20058;-58
2022/09/24 10:04:33;;;;;;;21.27;12.05;;;25.20;42.50;;;;;;5095849;28;20024;-57
2022/09/24 10:07:06;;;;;;;16.00;10.80;;;25.90;41.40;;;;;;5097029;28;20075;-58
2022/09/24 10:09:33;;;;;;;17.70;10.20;;;26.10;41.30;;;;;;5097150;28;20074;-57
2022/09/24 10:12:21;;;;;;;17.65;10.85;;;26.10;41.20;;;;;;5078780;28;20028;-57
2022/09/24 10:15:02;;;;;;;15.13;10.60;;;26.70;41.90;;;;;;5096913;28;20032;-57
2022/09/24 10:17:35;;;;;;;18.25;10.23;;;25.70;42.40;;;;;;5096710;28;20028;-57
2022/09/24 10:20:13;;;;;;;18.15;11.15;;;25.70;41.60;;;;;;5096728;28;20028;-58
2022/09/24 10:22:47;;;;;;;24.35;11.35;;;26.40;42.70;;;;;;5096830;28;20032;-58
2022/09/24 10:25:28;;;;;;;16.60;11.45;;;26.20;40.90;;;;;;5096601;28;20481;-58
2022/09/24 10:30:32;;;;;;;14.80;10.80;;;25.50;39.20;;;;;;5096776;28;20052;-58
2022/09/24 10:31:02;;;;;;;24.10;12.37;;;25.50;39.90;;;;;;5096618;28;20028;-57
2022/09/24 10:33:39;;;;;;;20.23;10.50;;;25.90;40.70;;;;;;5096648;28;20032;-57
2022/09/24 10:36:13;;;;;;;20.17;10.68;;;26.70;41.40;;;;;;5096580;28;20089;-57
2022/09/24 10:38:39;;;;;;;16.50;10.45;;;26.60;41.60;;;;;;5096596;28;20024;-58
2022/09/24 10:41:26;;;;;;;14.48;10.00;;;26.70;41.60;;;;;;5096288;28;20112;-58
2022/09/24 10:43:54;;;;;;;29.90;13.35;;;26.30;39.60;;;;;;5096440;28;20032;-58
2022/09/24 10:46:44;;;;;;;13.82;9.13;;;25.40;40.20;;;;;;5096165;28;20438;-57
2022/09/24 10:49:29;;;;;;;14.15;9.88;;;25.50;41.60;;;;;;5096331;28;20039;-58
2022/09/24 10:52:01;;;;;;;12.65;8.13;;;26.20;40.20;;;;;;5096453;28;20040;-58
2022/09/24 10:54:47;;;;;;;11.82;8.18;;;26.30;40.10;;;;;;5096090;28;20553;-58
2022/09/24 10:57:39;;;;;;;18.05;9.20;;;27.20;39.20;;;;;;5096103;28;20397;-58
2022/09/24 11:00:22;;;;;;;10.20;7.47;;;27.80;41.40;;;;;;5096152;28;20097;-58
2022/09/24 11:03:03;;;;;;;14.45;7.50;;;26.60;36.90;;;;;;5095921;28;20060;-58
2022/09/24 11:06:07;;;;;;;28.25;10.63;;;26.80;38.60;;;;;;5095741;28;20373;-58
2022/09/24 11:08:54;;;;;;;12.07;7.18;;;27.00;36.90;;;;;;5044758;28;20048;-58
2022/09/24 11:12:01;;;;;;;12.63;7.05;;;27.80;36.80;;;;;;5095802;28;20031;-58
2022/09/24 11:15:21;;;;;;;11.43;6.80;;;28.10;35.20;;;;;;5095804;28;20032;-58
2022/09/24 11:18:01;;;;;;;13.15;7.10;;;28.10;32.80;;;;;;4993970;28;20034;-58
2022/09/24 11:20:35;;;;;;;;;;;28.40;33.70;;;;;;5095999;28;20032;-58
2022/09/24 11:23:13;;;;;;;22.27;9.38;;;28.70;34.20;;;;;;5095419;28;19915;-58
2022/09/24 11:26:06;;;;;;;21.40;9.23;;;28.30;36.00;;;;;;5095543;28;20031;-58
2022/09/24 11:28:38;;;;;;;13.93;8.77;;;27.30;34.40;;;;;;5095554;28;20024;-58
2022/09/24 11:31:10;;;;;;;12.95;7.65;;;28.00;37.70;;;;;;5095810;28;20473;-58
2022/09/24 11:34:03;;;;;;;15.52;7.50;;;28.60;35.20;;;;;;5095357;28;20036;-58
2022/09/24 11:36:55;;;;;;;13.38;7.10;;;28.80;35.30;;;;;;5095452;28;20021;-56
2022/09/24 11:39:33;;;;;;;12.23;6.75;;;28.70;33.10;;;;;;5095348;28;20028;-56
2022/09/24 11:42:18;;;;;;;13.05;6.75;;;28.30;33.10;;;;;;5095360;28;20040;-55
2022/09/24 11:45:23;;;;;;;9.85;6.97;;;27.70;30.60;;;;;;5095302;28;20107;-56
2022/09/24 11:48:11;;;;;;;11.00;6.63;;;27.10;33.50;;;;;;4993400;28;20030;-56
2022/09/24 11:50:54;;;;;;;15.77;8.07;;;27.60;33.10;;;;;;5091969;28;20512;-56
2022/09/24 11:53:38;;;;;;;9.40;5.50;;;26.80;31.90;;;;;;5095039;28;20131;-56
2022/09/24 11:56:30;;;;;;;13.25;6.03;;;25.90;34.20;;;;;;5093174;28;20032;-56
2022/09/24 11:59:18;;;;;;;9.23;5.15;;;24.80;36.80;;;;;;5061891;28;20043;-56
2022/09/24 12:01:52;;;;;;;12.15;6.32;;;25.90;36.90;;;;;;5094955;28;20027;-56
2022/09/24 12:04:24;;;;;;;9.45;5.43;;;26.20;35.30;;;;;;5095168;28;20123;-55
2022/09/24 12:07:14;;;;;;;16.58;7.68;;;26.80;34.00;;;;;;5093662;28;20020;-55
2022/09/24 12:09:58;;;;;;;9.33;5.67;;;26.80;36.80;;;;;;5093509;28;20463;-56
2022/09/24 12:12:33;;;;;;;12.00;6.20;;;27.50;35.60;;;;;;5094697;28;20028;-55
2022/09/24 12:15:00;;;;;;;10.80;5.80;;;27.70;35.80;;;;;;5094720;28;20028;-56
2022/09/24 12:17:46;;;;;;;9.35;5.07;;;27.70;35.20;;;;;;5094111;28;20477;-56
2022/09/24 12:20:30;;;;;;;11.00;5.35;;;26.50;31.50;;;;;;5094640;28;20028;-55
2022/09/24 12:23:06;;;;;;;14.10;6.65;;;26.70;36.40;;;;;;5094611;28;20097;-56
2022/09/24 12:25:38;;;;;;;6.18;4.10;;;27.70;34.90;;;;;;5094510;28;20020;-56
2022/09/24 12:28:08;;;;;;;8.13;4.97;;;27.20;31.50;;;;;;5094614;28;20385;-56
2022/09/24 12:33:42;;;;;;;12.05;4.72;;;27.70;31.80;;;;;;5094515;28;20028;-56
2022/09/24 12:36:20;;;;;;;7.75;4.65;;;28.10;33.60;;;;;;5094538;28;20056;-56
2022/09/24 12:38:52;;;;;;;12.23;5.75;;;28.50;30.70;;;;;;5094718;28;20501;-56
2022/09/24 12:41:25;;;;;;;12.00;5.40;;;28.70;29.70;;;;;;5093050;28;20042;-56
2022/09/24 12:44:10;;;;;;;7.07;4.00;;;29.10;31.10;;;;;;5076149;28;20113;-55
2022/09/24 12:46:52;;;;;;;5.88;4.65;;;28.70;30.00;;;;;;5094307;28;20107;-56
2022/09/24 12:49:23;;;;;;;6.38;3.90;;;29.10;29.00;;;;;;5094270;28;20475;-56
2022/09/24 12:51:55;;;;;;;6.53;4.05;;;29.30;29.70;;;;;;5094394;28;20027;-56
2022/09/24 12:54:26;;;;;;;7.70;4.35;;;29.50;30.30;;;;;;5094257;28;20655;-56
2022/09/24 12:57:03;;;;;;;7.20;4.25;;;29.30;29.40;;;;;;5094268;28;20031;-56
2022/09/24 12:59:29;;;;;;;6.80;4.28;;;28.60;29.10;;;;;;5094230;28;20397;-56
2022/09/24 13:02:13;;;;;;;8.32;4.43;;;28.20;29.50;;;;;;5092770;28;20341;-56
2022/09/24 13:04:46;;;;;;;7.53;3.78;;;28.80;32.70;;;;;;5094233;28;20431;-56
2022/09/24 13:07:32;;;;;;;7.15;3.65;;;28.80;28.80;;;;;;5094138;28;20035;-56
2022/09/24 13:10:16;;;;;;;6.35;4.13;;;28.60;29.10;;;;;;5093765;28;20036;-56
2022/09/24 13:12:42;;;;;;;6.80;3.88;;;28.60;31.40;;;;;;5094421;28;20028;-55
2022/09/24 13:15:31;;;;;;;11.30;4.85;;;28.60;28.50;;;;;;5094198;28;20062;-56